sensor_id;sensor_type;location;lat;lon;timestamp;P1;durP1;ratioP1;P2;durP2;ratioP2
73239;SDS011;61452;40.054;4.110;2023-07-20T00:02:45;15.05;;;6.50;;
73239;SDS011;61452;40.054;4.110;2023-07-20T00:07:47;13.77;;;6.65;;
73239;SDS011;61452;40.054;4.110;2023-07-20T00:12:53;14.27;;;7.40;;
73239;SDS011;61452;40.054;4.110;2023-07-20T00:17:55;14.75;;;6.85;;
73239;SDS011;61452;40.054;4.110;2023-07-20T00:22:58;17.25;;;6.90;;
73239;SDS011;61452;40.054;4.110;2023-07-20T00:28:01;14.23;;;6.55;;
73239;SDS011;61452;40.054;4.110;2023-07-20T00:33:03;15.98;;;7.18;;
73239;SDS011;61452;40.054;4.110;2023-07-20T00:38:05;13.77;;;6.65;;
73239;SDS011;61452;40.054;4.110;2023-07-20T00:43:08;17.83;;;6.30;;
73239;SDS011;61452;40.054;4.110;2023-07-20T00:48:10;22.13;;;7.45;;
73239;SDS011;61452;40.054;4.110;2023-07-20T00:53:14;13.57;;;6.70;;
73239;SDS011;61452;40.054;4.110;2023-07-20T00:58:16;17.00;;;6.88;;
73239;SDS011;61452;40.054;4.110;2023-07-20T01:03:19;18.33;;;6.75;;
73239;SDS011;61452;40.054;4.110;2023-07-20T01:08:27;15.48;;;6.70;;
73239;SDS011;61452;40.054;4.110;2023-07-20T01:13:52;21.52;;;6.40;;
73239;SDS011;61452;40.054;4.110;2023-07-20T01:18:54;15.95;;;6.40;;
73239;SDS011;61452;40.054;4.110;2023-07-20T01:24:00;18.40;;;6.60;;
73239;SDS011;61452;40.054;4.110;2023-07-20T01:34:47;15.75;;;6.95;;
73239;SDS011;61452;40.054;4.110;2023-07-20T01:39:52;15.95;;;5.93;;
73239;SDS011;61452;40.054;4.110;2023-07-20T01:44:56;18.38;;;5.95;;
73239;SDS011;61452;40.054;4.110;2023-07-20T01:49:59;21.55;;;6.68;;
73239;SDS011;61452;40.054;4.110;2023-07-20T01:55:01;16.73;;;5.82;;
73239;SDS011;61452;40.054;4.110;2023-07-20T02:00:05;16.92;;;5.80;;
73239;SDS011;61452;40.054;4.110;2023-07-20T02:10:16;17.10;;;5.63;;
73239;SDS011;61452;40.054;4.110;2023-07-20T02:15:19;14.80;;;5.63;;
73239;SDS011;61452;40.054;4.110;2023-07-20T02:20:21;15.57;;;5.32;;
73239;SDS011;61452;40.054;4.110;2023-07-20T02:25:23;18.48;;;5.45;;
73239;SDS011;61452;40.054;4.110;2023-07-20T02:30:26;16.85;;;5.35;;
73239;SDS011;61452;40.054;4.110;2023-07-20T02:35:29;20.15;;;5.38;;
73239;SDS011;61452;40.054;4.110;2023-07-20T02:40:31;16.38;;;6.10;;
73239;SDS011;61452;40.054;4.110;2023-07-20T02:45:33;18.02;;;5.30;;
73239;SDS011;61452;40.054;4.110;2023-07-20T02:50:35;19.52;;;6.35;;
73239;SDS011;61452;40.054;4.110;2023-07-20T02:55:38;24.02;;;5.93;;
73239;SDS011;61452;40.054;4.110;2023-07-20T03:00:42;15.98;;;5.50;;
73239;SDS011;61452;40.054;4.110;2023-07-20T03:05:44;16.45;;;5.75;;
73239;SDS011;61452;40.054;4.110;2023-07-20T03:10:47;15.45;;;5.25;;
73239;SDS011;61452;40.054;4.110;2023-07-20T03:15:49;16.58;;;4.72;;
73239;SDS011;61452;40.054;4.110;2023-07-20T03:20:51;16.80;;;4.70;;
73239;SDS011;61452;40.054;4.110;2023-07-20T03:25:53;20.75;;;5.60;;
73239;SDS011;61452;40.054;4.110;2023-07-20T03:30:57;19.92;;;5.38;;
73239;SDS011;61452;40.054;4.110;2023-07-20T03:36:02;27.20;;;5.72;;
73239;SDS011;61452;40.054;4.110;2023-07-20T03:41:04;15.80;;;5.05;;
73239;SDS011;61452;40.054;4.110;2023-07-20T03:46:07;20.98;;;6.25;;
73239;SDS011;61452;40.054;4.110;2023-07-20T03:51:10;18.65;;;5.60;;
73239;SDS011;61452;40.054;4.110;2023-07-20T03:56:12;19.52;;;5.20;;
73239;SDS011;61452;40.054;4.110;2023-07-20T04:01:14;23.67;;;5.28;;
73239;SDS011;61452;40.054;4.110;2023-07-20T04:06:18;17.52;;;4.63;;
73239;SDS011;61452;40.054;4.110;2023-07-20T04:11:20;14.45;;;5.38;;
73239;SDS011;61452;40.054;4.110;2023-07-20T04:16:22;15.82;;;4.95;;
73239;SDS011;61452;40.054;4.110;2023-07-20T04:21:26;16.42;;;5.03;;
73239;SDS011;61452;40.054;4.110;2023-07-20T04:26:29;14.98;;;4.53;;
73239;SDS011;61452;40.054;4.110;2023-07-20T04:31:31;21.48;;;5.40;;
73239;SDS011;61452;40.054;4.110;2023-07-20T04:36:35;14.90;;;4.35;;
73239;SDS011;61452;40.054;4.110;2023-07-20T04:41:38;20.83;;;4.75;;
73239;SDS011;61452;40.054;4.110;2023-07-20T04:46:40;15.85;;;4.75;;
73239;SDS011;61452;40.054;4.110;2023-07-20T04:51:47;17.70;;;4.93;;
73239;SDS011;61452;40.054;4.110;2023-07-20T04:56:51;14.40;;;4.32;;
73239;SDS011;61452;40.054;4.110;2023-07-20T05:01:54;19.80;;;4.70;;
73239;SDS011;61452;40.054;4.110;2023-07-20T05:06:57;14.05;;;4.10;;
73239;SDS011;61452;40.054;4.110;2023-07-20T05:11:59;19.20;;;5.10;;
73239;SDS011;61452;40.054;4.110;2023-07-20T05:17:01;15.93;;;3.92;;
73239;SDS011;61452;40.054;4.110;2023-07-20T05:22:04;18.05;;;4.82;;
73239;SDS011;61452;40.054;4.110;2023-07-20T05:27:07;13.10;;;4.05;;
73239;SDS011;61452;40.054;4.110;2023-07-20T05:32:09;14.32;;;4.13;;
73239;SDS011;61452;40.054;4.110;2023-07-20T05:37:11;16.35;;;4.75;;
73239;SDS011;61452;40.054;4.110;2023-07-20T05:42:15;15.43;;;3.97;;
73239;SDS011;61452;40.054;4.110;2023-07-20T05:47:18;14.90;;;4.65;;
73239;SDS011;61452;40.054;4.110;2023-07-20T05:52:20;15.63;;;4.47;;
73239;SDS011;61452;40.054;4.110;2023-07-20T05:57:22;14.98;;;4.32;;
73239;SDS011;61452;40.054;4.110;2023-07-20T06:02:24;19.90;;;4.60;;
73239;SDS011;61452;40.054;4.110;2023-07-20T06:07:26;14.98;;;4.43;;
73239;SDS011;61452;40.054;4.110;2023-07-20T06:12:28;16.60;;;4.68;;
73239;SDS011;61452;40.054;4.110;2023-07-20T06:17:31;14.85;;;4.35;;
73239;SDS011;61452;40.054;4.110;2023-07-20T06:22:33;16.15;;;4.97;;
73239;SDS011;61452;40.054;4.110;2023-07-20T06:27:35;15.50;;;4.57;;
73239;SDS011;61452;40.054;4.110;2023-07-20T06:32:38;28.00;;;5.40;;
73239;SDS011;61452;40.054;4.110;2023-07-20T06:37:41;23.60;;;5.22;;
73239;SDS011;61452;40.054;4.110;2023-07-20T06:42:43;22.50;;;5.68;;
73239;SDS011;61452;40.054;4.110;2023-07-20T06:47:48;19.08;;;4.90;;
73239;SDS011;61452;40.054;4.110;2023-07-20T06:52:51;23.55;;;5.15;;
73239;SDS011;61452;40.054;4.110;2023-07-20T06:57:54;20.20;;;5.65;;
73239;SDS011;61452;40.054;4.110;2023-07-20T07:03:00;26.10;;;5.47;;
73239;SDS011;61452;40.054;4.110;2023-07-20T07:08:03;23.92;;;6.10;;
73239;SDS011;61452;40.054;4.110;2023-07-20T07:13:06;20.55;;;5.10;;
73239;SDS011;61452;40.054;4.110;2023-07-20T07:18:08;23.17;;;5.57;;
73239;SDS011;61452;40.054;4.110;2023-07-20T07:23:11;23.83;;;5.60;;
73239;SDS011;61452;40.054;4.110;2023-07-20T07:28:13;25.48;;;5.55;;
73239;SDS011;61452;40.054;4.110;2023-07-20T07:33:16;22.40;;;6.47;;
73239;SDS011;61452;40.054;4.110;2023-07-20T07:38:18;20.88;;;6.05;;
73239;SDS011;61452;40.054;4.110;2023-07-20T07:43:25;23.95;;;5.60;;
73239;SDS011;61452;40.054;4.110;2023-07-20T07:48:27;24.00;;;5.90;;
73239;SDS011;61452;40.054;4.110;2023-07-20T07:53:29;28.08;;;6.70;;
73239;SDS011;61452;40.054;4.110;2023-07-20T07:58:31;22.00;;;5.57;;
73239;SDS011;61452;40.054;4.110;2023-07-20T08:03:34;21.80;;;5.93;;
73239;SDS011;61452;40.054;4.110;2023-07-20T08:08:37;19.77;;;5.40;;
73239;SDS011;61452;40.054;4.110;2023-07-20T08:13:39;21.88;;;7.25;;
73239;SDS011;61452;40.054;4.110;2023-07-20T08:18:41;28.90;;;6.93;;
73239;SDS011;61452;40.054;4.110;2023-07-20T08:23:46;28.98;;;7.68;;
73239;SDS011;61452;40.054;4.110;2023-07-20T08:28:49;27.90;;;7.03;;
73239;SDS011;61452;40.054;4.110;2023-07-20T08:33:51;30.23;;;6.60;;
73239;SDS011;61452;40.054;4.110;2023-07-20T08:38:53;30.40;;;6.88;;
73239;SDS011;61452;40.054;4.110;2023-07-20T08:43:55;32.38;;;8.02;;
73239;SDS011;61452;40.054;4.110;2023-07-20T08:48:59;21.75;;;6.65;;
73239;SDS011;61452;40.054;4.110;2023-07-20T08:54:05;29.48;;;8.48;;
73239;SDS011;61452;40.054;4.110;2023-07-20T08:59:09;22.27;;;6.40;;
73239;SDS011;61452;40.054;4.110;2023-07-20T09:04:12;19.60;;;5.95;;
73239;SDS011;61452;40.054;4.110;2023-07-20T09:09:15;35.75;;;9.45;;
73239;SDS011;61452;40.054;4.110;2023-07-20T09:14:17;21.08;;;6.35;;
73239;SDS011;61452;40.054;4.110;2023-07-20T09:19:21;35.97;;;8.02;;
73239;SDS011;61452;40.054;4.110;2023-07-20T09:24:23;27.67;;;7.07;;
73239;SDS011;61452;40.054;4.110;2023-07-20T09:29:27;22.15;;;6.25;;
73239;SDS011;61452;40.054;4.110;2023-07-20T09:34:31;27.98;;;7.32;;
73239;SDS011;61452;40.054;4.110;2023-07-20T09:39:43;18.63;;;5.93;;
73239;SDS011;61452;40.054;4.110;2023-07-20T09:44:49;19.17;;;5.72;;
73239;SDS011;61452;40.054;4.110;2023-07-20T09:49:59;24.60;;;6.50;;
73239;SDS011;61452;40.054;4.110;2023-07-20T09:55:05;23.52;;;5.60;;
73239;SDS011;61452;40.054;4.110;2023-07-20T10:00:08;21.35;;;6.82;;
73239;SDS011;61452;40.054;4.110;2023-07-20T10:05:18;24.98;;;6.47;;
73239;SDS011;61452;40.054;4.110;2023-07-20T10:10:21;21.70;;;5.93;;
73239;SDS011;61452;40.054;4.110;2023-07-20T10:15:32;16.02;;;5.70;;
73239;SDS011;61452;40.054;4.110;2023-07-20T10:20:39;21.08;;;5.90;;
73239;SDS011;61452;40.054;4.110;2023-07-20T10:26:02;24.75;;;6.88;;
73239;SDS011;61452;40.054;4.110;2023-07-20T10:31:08;24.52;;;6.22;;
73239;SDS011;61452;40.054;4.110;2023-07-20T10:36:14;18.67;;;5.90;;
73239;SDS011;61452;40.054;4.110;2023-07-20T10:51:46;23.45;;;5.97;;
73239;SDS011;61452;40.054;4.110;2023-07-20T10:56:50;20.58;;;5.75;;
73239;SDS011;61452;40.054;4.110;2023-07-20T11:01:55;17.70;;;5.70;;
73239;SDS011;61452;40.054;4.110;2023-07-20T11:07:01;21.13;;;6.05;;
73239;SDS011;61452;40.054;4.110;2023-07-20T11:12:13;20.23;;;5.88;;
73239;SDS011;61452;40.054;4.110;2023-07-20T11:17:19;11.43;;;4.70;;
73239;SDS011;61452;40.054;4.110;2023-07-20T11:22:24;16.67;;;5.13;;
73239;SDS011;61452;40.054;4.110;2023-07-20T11:27:26;16.65;;;4.78;;
73239;SDS011;61452;40.054;4.110;2023-07-20T11:32:30;18.55;;;5.38;;
73239;SDS011;61452;40.054;4.110;2023-07-20T11:37:33;16.02;;;4.85;;
73239;SDS011;61452;40.054;4.110;2023-07-20T11:42:36;17.55;;;4.55;;
73239;SDS011;61452;40.054;4.110;2023-07-20T11:47:41;14.55;;;5.05;;
73239;SDS011;61452;40.054;4.110;2023-07-20T11:52:46;14.85;;;5.38;;
73239;SDS011;61452;40.054;4.110;2023-07-20T11:58:01;17.92;;;4.60;;
73239;SDS011;61452;40.054;4.110;2023-07-20T12:03:07;14.88;;;5.00;;
73239;SDS011;61452;40.054;4.110;2023-07-20T12:08:09;19.75;;;5.70;;
73239;SDS011;61452;40.054;4.110;2023-07-20T12:13:12;16.00;;;4.95;;
73239;SDS011;61452;40.054;4.110;2023-07-20T12:18:14;20.25;;;5.50;;
73239;SDS011;61452;40.054;4.110;2023-07-20T12:23:17;19.15;;;5.90;;
73239;SDS011;61452;40.054;4.110;2023-07-20T12:28:19;16.85;;;5.63;;
73239;SDS011;61452;40.054;4.110;2023-07-20T12:33:22;21.10;;;5.82;;
73239;SDS011;61452;40.054;4.110;2023-07-20T12:38:25;17.55;;;5.57;;
73239;SDS011;61452;40.054;4.110;2023-07-20T12:43:29;16.02;;;5.00;;
73239;SDS011;61452;40.054;4.110;2023-07-20T12:48:31;15.48;;;5.20;;
73239;SDS011;61452;40.054;4.110;2023-07-20T12:53:33;19.20;;;5.10;;
73239;SDS011;61452;40.054;4.110;2023-07-20T12:58:36;17.88;;;5.57;;
73239;SDS011;61452;40.054;4.110;2023-07-20T13:03:38;16.15;;;5.03;;
73239;SDS011;61452;40.054;4.110;2023-07-20T13:09:00;14.60;;;4.47;;
73239;SDS011;61452;40.054;4.110;2023-07-20T13:14:02;14.43;;;5.13;;
73239;SDS011;61452;40.054;4.110;2023-07-20T13:19:05;14.63;;;4.35;;
73239;SDS011;61452;40.054;4.110;2023-07-20T13:24:08;15.13;;;5.45;;
73239;SDS011;61452;40.054;4.110;2023-07-20T13:29:10;16.90;;;5.07;;
73239;SDS011;61452;40.054;4.110;2023-07-20T13:34:12;20.90;;;5.93;;
73239;SDS011;61452;40.054;4.110;2023-07-20T13:39:19;19.08;;;6.15;;
73239;SDS011;61452;40.054;4.110;2023-07-20T13:44:21;14.57;;;4.45;;
73239;SDS011;61452;40.054;4.110;2023-07-20T13:49:24;17.73;;;5.50;;
73239;SDS011;61452;40.054;4.110;2023-07-20T13:54:26;15.90;;;4.72;;
73239;SDS011;61452;40.054;4.110;2023-07-20T13:59:28;17.25;;;5.35;;
73239;SDS011;61452;40.054;4.110;2023-07-20T14:04:30;19.05;;;4.70;;
73239;SDS011;61452;40.054;4.110;2023-07-20T14:09:33;15.18;;;4.32;;
73239;SDS011;61452;40.054;4.110;2023-07-20T14:14:35;15.80;;;4.18;;
73239;SDS011;61452;40.054;4.110;2023-07-20T14:19:37;14.05;;;3.90;;
73239;SDS011;61452;40.054;4.110;2023-07-20T14:24:40;17.38;;;4.40;;
73239;SDS011;61452;40.054;4.110;2023-07-20T14:29:42;13.43;;;4.28;;
73239;SDS011;61452;40.054;4.110;2023-07-20T14:34:45;15.43;;;4.20;;
73239;SDS011;61452;40.054;4.110;2023-07-20T14:44:50;14.95;;;5.10;;
73239;SDS011;61452;40.054;4.110;2023-07-20T14:54:55;14.45;;;4.22;;
73239;SDS011;61452;40.054;4.110;2023-07-20T14:59:57;10.77;;;3.50;;
73239;SDS011;61452;40.054;4.110;2023-07-20T15:04:59;11.73;;;3.83;;
73239;SDS011;61452;40.054;4.110;2023-07-20T15:10:02;10.85;;;3.92;;
73239;SDS011;61452;40.054;4.110;2023-07-20T15:15:06;11.82;;;4.03;;
73239;SDS011;61452;40.054;4.110;2023-07-20T15:20:13;13.77;;;4.30;;
73239;SDS011;61452;40.054;4.110;2023-07-20T15:25:16;9.85;;;3.58;;
73239;SDS011;61452;40.054;4.110;2023-07-20T15:30:18;12.50;;;4.22;;
73239;SDS011;61452;40.054;4.110;2023-07-20T15:35:23;14.07;;;3.85;;
73239;SDS011;61452;40.054;4.110;2023-07-20T15:40:25;8.60;;;3.58;;
73239;SDS011;61452;40.054;4.110;2023-07-20T15:45:28;12.57;;;3.97;;
73239;SDS011;61452;40.054;4.110;2023-07-20T15:50:30;11.52;;;3.85;;
73239;SDS011;61452;40.054;4.110;2023-07-20T15:55:32;14.70;;;4.22;;
73239;SDS011;61452;40.054;4.110;2023-07-20T16:00:36;6.53;;;3.72;;
73239;SDS011;61452;40.054;4.110;2023-07-20T16:05:39;14.10;;;4.20;;
73239;SDS011;61452;40.054;4.110;2023-07-20T16:10:41;16.08;;;4.63;;
73239;SDS011;61452;40.054;4.110;2023-07-20T16:15:43;11.32;;;4.22;;
73239;SDS011;61452;40.054;4.110;2023-07-20T16:20:48;20.10;;;5.28;;
73239;SDS011;61452;40.054;4.110;2023-07-20T16:25:51;12.07;;;4.05;;
73239;SDS011;61452;40.054;4.110;2023-07-20T16:30:53;13.02;;;4.13;;
73239;SDS011;61452;40.054;4.110;2023-07-20T16:35:56;22.60;;;5.03;;
73239;SDS011;61452;40.054;4.110;2023-07-20T16:46:01;12.30;;;4.00;;
73239;SDS011;61452;40.054;4.110;2023-07-20T16:51:24;17.13;;;4.43;;
73239;SDS011;61452;40.054;4.110;2023-07-20T17:01:29;16.30;;;4.50;;
73239;SDS011;61452;40.054;4.110;2023-07-20T17:06:35;11.95;;;4.70;;
73239;SDS011;61452;40.054;4.110;2023-07-20T17:11:38;17.30;;;4.95;;
73239;SDS011;61452;40.054;4.110;2023-07-20T17:16:40;20.80;;;6.03;;
73239;SDS011;61452;40.054;4.110;2023-07-20T17:21:43;28.10;;;5.50;;
73239;SDS011;61452;40.054;4.110;2023-07-20T17:26:46;17.85;;;4.97;;
73239;SDS011;61452;40.054;4.110;2023-07-20T17:32:08;20.92;;;5.57;;
73239;SDS011;61452;40.054;4.110;2023-07-20T17:37:11;27.52;;;6.38;;
73239;SDS011;61452;40.054;4.110;2023-07-20T17:42:18;20.20;;;5.35;;
73239;SDS011;61452;40.054;4.110;2023-07-20T17:47:23;21.33;;;5.05;;
73239;SDS011;61452;40.054;4.110;2023-07-20T17:52:26;21.50;;;5.03;;
73239;SDS011;61452;40.054;4.110;2023-07-20T17:57:28;17.52;;;5.15;;
73239;SDS011;61452;40.054;4.110;2023-07-20T18:02:30;13.68;;;4.65;;
73239;SDS011;61452;40.054;4.110;2023-07-20T18:07:33;25.27;;;5.68;;
73239;SDS011;61452;40.054;4.110;2023-07-20T18:12:35;24.65;;;5.82;;
73239;SDS011;61452;40.054;4.110;2023-07-20T18:17:38;19.02;;;5.78;;
73239;SDS011;61452;40.054;4.110;2023-07-20T18:22:40;13.50;;;4.15;;
73239;SDS011;61452;40.054;4.110;2023-07-20T18:27:43;15.00;;;4.50;;
73239;SDS011;61452;40.054;4.110;2023-07-20T18:32:45;12.32;;;4.72;;
73239;SDS011;61452;40.054;4.110;2023-07-20T18:37:48;13.60;;;4.50;;
73239;SDS011;61452;40.054;4.110;2023-07-20T18:42:50;13.30;;;4.05;;
73239;SDS011;61452;40.054;4.110;2023-07-20T18:47:52;13.98;;;4.32;;
73239;SDS011;61452;40.054;4.110;2023-07-20T18:52:56;15.85;;;5.10;;
73239;SDS011;61452;40.054;4.110;2023-07-20T18:58:02;16.17;;;5.90;;
73239;SDS011;61452;40.054;4.110;2023-07-20T19:03:04;14.70;;;5.50;;
73239;SDS011;61452;40.054;4.110;2023-07-20T19:08:06;13.13;;;4.90;;
73239;SDS011;61452;40.054;4.110;2023-07-20T19:13:09;16.38;;;4.90;;
73239;SDS011;61452;40.054;4.110;2023-07-20T19:18:11;14.63;;;5.28;;
73239;SDS011;61452;40.054;4.110;2023-07-20T19:23:14;17.02;;;5.57;;
73239;SDS011;61452;40.054;4.110;2023-07-20T19:28:16;21.45;;;5.38;;
73239;SDS011;61452;40.054;4.110;2023-07-20T19:33:18;12.85;;;4.57;;
73239;SDS011;61452;40.054;4.110;2023-07-20T19:38:23;12.85;;;5.32;;
73239;SDS011;61452;40.054;4.110;2023-07-20T19:43:26;14.63;;;4.75;;
73239;SDS011;61452;40.054;4.110;2023-07-20T19:48:29;13.45;;;4.55;;
73239;SDS011;61452;40.054;4.110;2023-07-20T19:53:31;15.38;;;5.07;;
73239;SDS011;61452;40.054;4.110;2023-07-20T19:58:34;14.88;;;5.28;;
73239;SDS011;61452;40.054;4.110;2023-07-20T20:03:37;14.82;;;4.65;;
73239;SDS011;61452;40.054;4.110;2023-07-20T20:08:42;15.40;;;4.57;;
73239;SDS011;61452;40.054;4.110;2023-07-20T20:13:44;16.00;;;5.68;;
73239;SDS011;61452;40.054;4.110;2023-07-20T20:18:46;13.63;;;5.05;;
73239;SDS011;61452;40.054;4.110;2023-07-20T20:23:48;14.27;;;5.07;;
73239;SDS011;61452;40.054;4.110;2023-07-20T20:28:51;13.80;;;5.32;;
73239;SDS011;61452;40.054;4.110;2023-07-20T20:33:53;18.17;;;5.97;;
73239;SDS011;61452;40.054;4.110;2023-07-20T20:38:55;14.52;;;5.65;;
73239;SDS011;61452;40.054;4.110;2023-07-20T20:43:58;16.92;;;5.55;;
73239;SDS011;61452;40.054;4.110;2023-07-20T20:49:00;13.75;;;4.82;;
73239;SDS011;61452;40.054;4.110;2023-07-20T20:54:05;16.33;;;5.88;;
73239;SDS011;61452;40.054;4.110;2023-07-20T20:59:08;12.85;;;6.13;;
73239;SDS011;61452;40.054;4.110;2023-07-20T21:04:10;17.45;;;6.43;;
73239;SDS011;61452;40.054;4.110;2023-07-20T21:09:12;10.77;;;5.43;;
73239;SDS011;61452;40.054;4.110;2023-07-20T21:14:15;13.55;;;5.65;;
73239;SDS011;61452;40.054;4.110;2023-07-20T21:19:17;14.50;;;6.88;;
73239;SDS011;61452;40.054;4.110;2023-07-20T21:24:19;14.82;;;6.85;;
73239;SDS011;61452;40.054;4.110;2023-07-20T21:29:21;16.35;;;7.90;;
73239;SDS011;61452;40.054;4.110;2023-07-20T21:34:24;15.90;;;8.57;;
73239;SDS011;61452;40.054;4.110;2023-07-20T21:39:26;17.38;;;9.25;;
73239;SDS011;61452;40.054;4.110;2023-07-20T21:44:28;17.35;;;9.02;;
73239;SDS011;61452;40.054;4.110;2023-07-20T21:49:31;16.83;;;8.27;;
73239;SDS011;61452;40.054;4.110;2023-07-20T21:54:33;19.48;;;9.98;;
73239;SDS011;61452;40.054;4.110;2023-07-20T21:59:35;16.92;;;9.95;;
73239;SDS011;61452;40.054;4.110;2023-07-20T22:04:37;17.25;;;9.23;;
73239;SDS011;61452;40.054;4.110;2023-07-20T22:09:40;19.85;;;9.02;;
73239;SDS011;61452;40.054;4.110;2023-07-20T22:14:46;17.33;;;9.40;;
73239;SDS011;61452;40.054;4.110;2023-07-20T22:19:49;16.85;;;9.13;;
73239;SDS011;61452;40.054;4.110;2023-07-20T22:24:51;15.43;;;8.77;;
73239;SDS011;61452;40.054;4.110;2023-07-20T22:29:54;18.55;;;8.68;;
73239;SDS011;61452;40.054;4.110;2023-07-20T22:34:56;18.20;;;8.50;;
73239;SDS011;61452;40.054;4.110;2023-07-20T22:39:59;13.90;;;8.70;;
73239;SDS011;61452;40.054;4.110;2023-07-20T22:45:04;15.57;;;9.73;;
73239;SDS011;61452;40.054;4.110;2023-07-20T22:50:07;18.95;;;9.43;;
73239;SDS011;61452;40.054;4.110;2023-07-20T22:55:09;17.70;;;9.13;;
73239;SDS011;61452;40.054;4.110;2023-07-20T23:00:12;18.33;;;10.40;;
73239;SDS011;61452;40.054;4.110;2023-07-20T23:05:15;18.70;;;9.65;;
73239;SDS011;61452;40.054;4.110;2023-07-20T23:10:17;19.05;;;9.27;;
73239;SDS011;61452;40.054;4.110;2023-07-20T23:15:20;23.40;;;10.40;;
73239;SDS011;61452;40.054;4.110;2023-07-20T23:20:22;17.63;;;9.88;;
73239;SDS011;61452;40.054;4.110;2023-07-20T23:25:26;21.40;;;10.70;;
73239;SDS011;61452;40.054;4.110;2023-07-20T23:30:28;22.10;;;10.25;;
73239;SDS011;61452;40.054;4.110;2023-07-20T23:35:30;14.50;;;9.25;;
73239;SDS011;61452;40.054;4.110;2023-07-20T23:40:33;18.27;;;9.38;;
73239;SDS011;61452;40.054;4.110;2023-07-20T23:45:35;19.27;;;10.05;;
73239;SDS011;61452;40.054;4.110;2023-07-20T23:50:41;14.60;;;9.13;;
73239;SDS011;61452;40.054;4.110;2023-07-20T23:55:46;20.95;;;8.75;;
